sensor_id;sensor_type;location;lat;lon;timestamp;temperature;humidity
23069;DHT22;11702;50.856;4.348;2023-04-06T09:07:13;9.00;99.90
23069;DHT22;11702;50.856;4.348;2023-04-06T09:09:39;9.10;99.90
23069;DHT22;11702;50.856;4.348;2023-04-06T09:12:22;9.20;99.90
23069;DHT22;11702;50.856;4.348;2023-04-06T09:14:48;9.30;99.90
23069;DHT22;11702;50.856;4.348;2023-04-06T09:17:26;9.30;99.90
23069;DHT22;11702;50.856;4.348;2023-04-06T09:19:52;9.30;99.90
23069;DHT22;11702;50.856;4.348;2023-04-06T09:22:18;9.40;99.90
23069;DHT22;11702;50.856;4.348;2023-04-06T09:24:52;9.50;99.90
23069;DHT22;11702;50.856;4.348;2023-04-06T09:27:29;9.50;99.90
23069;DHT22;11702;50.856;4.348;2023-04-06T09:30:09;9.60;99.90
23069;DHT22;11702;50.856;4.348;2023-04-06T09:32:49;9.70;99.90
23069;DHT22;11702;50.856;4.348;2023-04-06T09:35:20;9.60;99.90
23069;DHT22;11702;50.856;4.348;2023-04-06T09:37:48;9.50;99.90
23069;DHT22;11702;50.856;4.348;2023-04-06T09:40:36;9.40;99.90
23069;DHT22;11702;50.856;4.348;2023-04-06T09:43:09;9.40;99.90
23069;DHT22;11702;50.856;4.348;2023-04-06T09:45:38;9.50;99.90
23069;DHT22;11702;50.856;4.348;2023-04-06T09:48:15;9.40;99.90
23069;DHT22;11702;50.856;4.348;2023-04-06T09:50:40;9.40;99.90
23069;DHT22;11702;50.856;4.348;2023-04-06T09:53:12;9.20;99.90
23069;DHT22;11702;50.856;4.348;2023-04-06T09:55:43;9.20;99.90
23069;DHT22;11702;50.856;4.348;2023-04-06T09:58:16;9.20;99.90
23069;DHT22;11702;50.856;4.348;2023-04-06T10:00:55;9.20;99.90
23069;DHT22;11702;50.856;4.348;2023-04-06T10:06:15;9.40;99.90
23069;DHT22;11702;50.856;4.348;2023-04-06T10:08:54;9.30;99.90
23069;DHT22;11702;50.856;4.348;2023-04-06T10:11:24;9.30;99.90
23069;DHT22;11702;50.856;4.348;2023-04-06T10:13:50;9.30;99.90
23069;DHT22;11702;50.856;4.348;2023-04-06T10:16:17;9.40;99.90
23069;DHT22;11702;50.856;4.348;2023-04-06T10:21:54;9.50;99.90
23069;DHT22;11702;50.856;4.348;2023-04-06T10:24:23;9.50;99.90
23069;DHT22;11702;50.856;4.348;2023-04-06T10:33:19;9.60;99.90
23069;DHT22;11702;50.856;4.348;2023-04-06T10:35:54;9.60;99.90
23069;DHT22;11702;50.856;4.348;2023-04-06T10:38:40;9.60;99.90
23069;DHT22;11702;50.856;4.348;2023-04-06T10:41:11;9.70;99.90
23069;DHT22;11702;50.856;4.348;2023-04-06T10:43:54;9.70;99.90
23069;DHT22;11702;50.856;4.348;2023-04-06T10:46:25;9.80;99.90
23069;DHT22;11702;50.856;4.348;2023-04-06T10:48:54;9.80;99.90
23069;DHT22;11702;50.856;4.348;2023-04-06T10:51:42;9.70;99.90
23069;DHT22;11702;50.856;4.348;2023-04-06T10:54:12;9.70;99.90
23069;DHT22;11702;50.856;4.348;2023-04-06T10:56:48;9.50;99.90
23069;DHT22;11702;50.856;4.348;2023-04-06T10:59:19;9.50;99.90
23069;DHT22;11702;50.856;4.348;2023-04-06T11:02:03;9.50;99.90
23069;DHT22;11702;50.856;4.348;2023-04-06T11:04:40;9.60;99.90
23069;DHT22;11702;50.856;4.348;2023-04-06T11:07:28;9.50;99.90
23069;DHT22;11702;50.856;4.348;2023-04-06T11:10:01;9.60;99.90
23069;DHT22;11702;50.856;4.348;2023-04-06T11:12:29;9.80;99.90
23069;DHT22;11702;50.856;4.348;2023-04-06T11:14:58;9.90;99.90
23069;DHT22;11702;50.856;4.348;2023-04-06T11:17:35;10.00;99.90
23069;DHT22;11702;50.856;4.348;2023-04-06T11:20:02;10.10;99.90
23069;DHT22;11702;50.856;4.348;2023-04-06T11:22:34;10.30;99.90
23069;DHT22;11702;50.856;4.348;2023-04-06T11:25:11;10.50;99.90
23069;DHT22;11702;50.856;4.348;2023-04-06T11:27:42;10.70;99.90
23069;DHT22;11702;50.856;4.348;2023-04-06T11:30:09;10.70;99.90
23069;DHT22;11702;50.856;4.348;2023-04-06T11:33:04;10.70;99.90
23069;DHT22;11702;50.856;4.348;2023-04-06T11:35:31;10.60;99.90
23069;DHT22;11702;50.856;4.348;2023-04-06T11:38:03;10.70;99.90
23069;DHT22;11702;50.856;4.348;2023-04-06T11:40:29;10.70;99.90
23069;DHT22;11702;50.856;4.348;2023-04-06T11:42:59;10.90;99.90
23069;DHT22;11702;50.856;4.348;2023-04-06T11:45:38;11.00;99.90
23069;DHT22;11702;50.856;4.348;2023-04-06T11:48:05;11.00;99.90
23069;DHT22;11702;50.856;4.348;2023-04-06T11:50:33;10.90;99.90
23069;DHT22;11702;50.856;4.348;2023-04-06T11:53:01;10.80;99.90
23069;DHT22;11702;50.856;4.348;2023-04-06T11:55:40;10.60;99.90
23069;DHT22;11702;50.856;4.348;2023-04-06T11:58:20;10.50;99.90
23069;DHT22;11702;50.856;4.348;2023-04-06T12:01:02;10.40;99.90
23069;DHT22;11702;50.856;4.348;2023-04-06T12:03:31;10.30;99.90
23069;DHT22;11702;50.856;4.348;2023-04-06T12:05:57;10.30;99.90
23069;DHT22;11702;50.856;4.348;2023-04-06T12:08:25;10.40;99.90
23069;DHT22;11702;50.856;4.348;2023-04-06T12:10:51;10.50;99.90
23069;DHT22;11702;50.856;4.348;2023-04-06T12:13:17;10.60;99.90
23069;DHT22;11702;50.856;4.348;2023-04-06T12:15:53;10.70;99.90
23069;DHT22;11702;50.856;4.348;2023-04-06T12:18:19;10.60;99.90
23069;DHT22;11702;50.856;4.348;2023-04-06T12:20:45;10.60;99.90
23069;DHT22;11702;50.856;4.348;2023-04-06T12:23:13;10.60;99.90
23069;DHT22;11702;50.856;4.348;2023-04-06T12:25:40;10.60;99.90
23069;DHT22;11702;50.856;4.348;2023-04-06T12:28:10;10.70;99.90
23069;DHT22;11702;50.856;4.348;2023-04-06T12:30:37;10.60;99.90
23069;DHT22;11702;50.856;4.348;2023-04-06T12:33:12;10.50;99.90
23069;DHT22;11702;50.856;4.348;2023-04-06T12:35:58;10.50;99.90
23069;DHT22;11702;50.856;4.348;2023-04-06T12:38:27;10.50;99.90
23069;DHT22;11702;50.856;4.348;2023-04-06T12:41:00;10.50;99.90
23069;DHT22;11702;50.856;4.348;2023-04-06T12:43:26;10.50;99.90
23069;DHT22;11702;50.856;4.348;2023-04-06T12:45:56;10.60;99.90
23069;DHT22;11702;50.856;4.348;2023-04-06T12:48:26;10.60;99.90
23069;DHT22;11702;50.856;4.348;2023-04-06T12:51:15;10.40;99.90
23069;DHT22;11702;50.856;4.348;2023-04-06T12:53:42;10.30;99.90
23069;DHT22;11702;50.856;4.348;2023-04-06T12:56:13;10.20;99.90
23069;DHT22;11702;50.856;4.348;2023-04-06T12:58:41;10.10;99.90
23069;DHT22;11702;50.856;4.348;2023-04-06T13:01:07;10.10;99.90
23069;DHT22;11702;50.856;4.348;2023-04-06T13:03:35;10.00;99.90
23069;DHT22;11702;50.856;4.348;2023-04-06T13:06:02;9.90;99.90
23069;DHT22;11702;50.856;4.348;2023-04-06T13:08:31;9.80;99.90
23069;DHT22;11702;50.856;4.348;2023-04-06T13:11:02;9.70;99.90
23069;DHT22;11702;50.856;4.348;2023-04-06T13:13:29;9.70;99.90
23069;DHT22;11702;50.856;4.348;2023-04-06T13:16:04;9.80;99.90
23069;DHT22;11702;50.856;4.348;2023-04-06T13:18:37;9.70;99.90
23069;DHT22;11702;50.856;4.348;2023-04-06T13:21:08;9.80;99.90
23069;DHT22;11702;50.856;4.348;2023-04-06T13:23:45;9.80;99.90
23069;DHT22;11702;50.856;4.348;2023-04-06T13:26:17;9.90;99.90
23069;DHT22;11702;50.856;4.348;2023-04-06T13:28:43;9.80;99.90
23069;DHT22;11702;50.856;4.348;2023-04-06T13:31:08;9.80;99.90
23069;DHT22;11702;50.856;4.348;2023-04-06T13:33:41;9.90;99.90
23069;DHT22;11702;50.856;4.348;2023-04-06T13:36:07;10.00;99.90
23069;DHT22;11702;50.856;4.348;2023-04-06T13:38:33;10.00;99.90
23069;DHT22;11702;50.856;4.348;2023-04-06T13:41:00;10.10;99.90
23069;DHT22;11702;50.856;4.348;2023-04-06T13:43:26;10.10;99.90
23069;DHT22;11702;50.856;4.348;2023-04-06T13:45:57;10.20;99.90
23069;DHT22;11702;50.856;4.348;2023-04-06T13:48:25;10.30;99.90
23069;DHT22;11702;50.856;4.348;2023-04-06T13:50:51;10.30;99.90
23069;DHT22;11702;50.856;4.348;2023-04-06T13:53:25;10.30;99.90
23069;DHT22;11702;50.856;4.348;2023-04-06T13:55:53;10.20;99.90
23069;DHT22;11702;50.856;4.348;2023-04-06T13:58:21;10.10;99.90
23069;DHT22;11702;50.856;4.348;2023-04-06T14:00:53;10.20;99.90
23069;DHT22;11702;50.856;4.348;2023-04-06T14:03:23;10.10;99.90
23069;DHT22;11702;50.856;4.348;2023-04-06T14:05:56;10.00;99.90
23069;DHT22;11702;50.856;4.348;2023-04-06T14:08:47;10.00;99.90
23069;DHT22;11702;50.856;4.348;2023-04-06T14:11:14;10.00;99.90
23069;DHT22;11702;50.856;4.348;2023-04-06T14:13:41;9.90;99.90
23069;DHT22;11702;50.856;4.348;2023-04-06T14:16:08;9.80;99.90
23069;DHT22;11702;50.856;4.348;2023-04-06T14:18:36;10.00;99.90
23069;DHT22;11702;50.856;4.348;2023-04-06T14:21:07;10.00;99.90
23069;DHT22;11702;50.856;4.348;2023-04-06T14:26:37;10.00;99.90
23069;DHT22;11702;50.856;4.348;2023-04-06T14:29:16;10.00;99.90
23069;DHT22;11702;50.856;4.348;2023-04-06T14:31:47;10.00;99.90
23069;DHT22;11702;50.856;4.348;2023-04-06T14:34:16;10.10;99.90
23069;DHT22;11702;50.856;4.348;2023-04-06T14:36:55;10.10;99.90
23069;DHT22;11702;50.856;4.348;2023-04-06T14:39:33;10.20;99.90
23069;DHT22;11702;50.856;4.348;2023-04-06T14:42:02;10.10;99.90
23069;DHT22;11702;50.856;4.348;2023-04-06T14:44:33;10.10;99.90
23069;DHT22;11702;50.856;4.348;2023-04-06T14:47:01;10.10;99.90
23069;DHT22;11702;50.856;4.348;2023-04-06T14:49:30;10.20;99.90
23069;DHT22;11702;50.856;4.348;2023-04-06T14:52:00;10.30;99.90
23069;DHT22;11702;50.856;4.348;2023-04-06T14:54:54;10.40;99.90
23069;DHT22;11702;50.856;4.348;2023-04-06T14:57:24;10.40;99.90
23069;DHT22;11702;50.856;4.348;2023-04-06T14:59:56;10.40;99.90
23069;DHT22;11702;50.856;4.348;2023-04-06T15:02:25;10.30;99.90
23069;DHT22;11702;50.856;4.348;2023-04-06T15:08:01;10.20;99.90
23069;DHT22;11702;50.856;4.348;2023-04-06T15:10:47;10.40;99.90
23069;DHT22;11702;50.856;4.348;2023-04-06T15:13:14;10.50;99.90
23069;DHT22;11702;50.856;4.348;2023-04-06T15:15:41;10.50;99.90
23069;DHT22;11702;50.856;4.348;2023-04-06T15:18:16;10.70;99.90
23069;DHT22;11702;50.856;4.348;2023-04-06T15:20:41;10.90;99.90
23069;DHT22;11702;50.856;4.348;2023-04-06T15:23:14;11.00;99.90
23069;DHT22;11702;50.856;4.348;2023-04-06T15:25:40;11.20;99.90
23069;DHT22;11702;50.856;4.348;2023-04-06T15:28:06;11.40;99.90
23069;DHT22;11702;50.856;4.348;2023-04-06T15:30:32;11.50;99.90
23069;DHT22;11702;50.856;4.348;2023-04-06T15:32:59;11.60;99.90
23069;DHT22;11702;50.856;4.348;2023-04-06T15:35:29;11.60;99.90
23069;DHT22;11702;50.856;4.348;2023-04-06T15:37:55;11.60;99.90
23069;DHT22;11702;50.856;4.348;2023-04-06T15:40:22;11.70;99.90
23069;DHT22;11702;50.856;4.348;2023-04-06T15:42:48;11.70;99.90
23069;DHT22;11702;50.856;4.348;2023-04-06T15:45:16;11.60;99.90
23069;DHT22;11702;50.856;4.348;2023-04-06T15:47:44;11.60;99.90
23069;DHT22;11702;50.856;4.348;2023-04-06T15:50:10;11.50;99.90
23069;DHT22;11702;50.856;4.348;2023-04-06T15:52:40;11.40;99.90
23069;DHT22;11702;50.856;4.348;2023-04-06T15:55:07;11.40;99.90
23069;DHT22;11702;50.856;4.348;2023-04-06T16:00:25;11.40;99.90
23069;DHT22;11702;50.856;4.348;2023-04-06T16:02:55;11.50;99.90
23069;DHT22;11702;50.856;4.348;2023-04-06T16:05:33;11.30;99.90
23069;DHT22;11702;50.856;4.348;2023-04-06T16:08:16;11.30;99.90
23069;DHT22;11702;50.856;4.348;2023-04-06T16:11:02;11.40;99.90
23069;DHT22;11702;50.856;4.348;2023-04-06T16:13:27;11.40;99.90
23069;DHT22;11702;50.856;4.348;2023-04-06T16:16:00;11.30;99.90
23069;DHT22;11702;50.856;4.348;2023-04-06T16:18:28;11.20;99.90
23069;DHT22;11702;50.856;4.348;2023-04-06T16:20:55;11.20;99.90
23069;DHT22;11702;50.856;4.348;2023-04-06T16:23:21;11.20;99.90
23069;DHT22;11702;50.856;4.348;2023-04-06T16:25:48;11.30;99.90
23069;DHT22;11702;50.856;4.348;2023-04-06T16:28:14;11.30;99.90
23069;DHT22;11702;50.856;4.348;2023-04-06T16:30:47;11.50;99.90
23069;DHT22;11702;50.856;4.348;2023-04-06T16:33:15;11.60;99.90
23069;DHT22;11702;50.856;4.348;2023-04-06T16:35:47;11.70;99.90
23069;DHT22;11702;50.856;4.348;2023-04-06T16:38:13;11.90;99.90
23069;DHT22;11702;50.856;4.348;2023-04-06T16:41:00;11.90;99.90
23069;DHT22;11702;50.856;4.348;2023-04-06T16:43:34;11.80;99.90
23069;DHT22;11702;50.856;4.348;2023-04-06T16:46:01;11.90;99.90
23069;DHT22;11702;50.856;4.348;2023-04-06T16:48:26;11.80;99.90
23069;DHT22;11702;50.856;4.348;2023-04-06T16:50:52;11.80;99.90
23069;DHT22;11702;50.856;4.348;2023-04-06T16:53:18;11.70;99.90
23069;DHT22;11702;50.856;4.348;2023-04-06T16:55:43;11.80;99.90
23069;DHT22;11702;50.856;4.348;2023-04-06T16:58:16;11.60;99.90
23069;DHT22;11702;50.856;4.348;2023-04-06T17:00:42;11.70;99.90
23069;DHT22;11702;50.856;4.348;2023-04-06T17:03:09;11.60;99.90
23069;DHT22;11702;50.856;4.348;2023-04-06T17:05:35;11.60;99.90
23069;DHT22;11702;50.856;4.348;2023-04-06T17:08:01;11.60;99.90
23069;DHT22;11702;50.856;4.348;2023-04-06T17:10:27;11.60;99.90
23069;DHT22;11702;50.856;4.348;2023-04-06T17:12:53;11.70;99.90
23069;DHT22;11702;50.856;4.348;2023-04-06T17:15:18;11.70;99.90
23069;DHT22;11702;50.856;4.348;2023-04-06T17:17:44;11.60;99.90
23069;DHT22;11702;50.856;4.348;2023-04-06T17:20:09;11.70;99.90
23069;DHT22;11702;50.856;4.348;2023-04-06T17:22:35;11.60;99.90
23069;DHT22;11702;50.856;4.348;2023-04-06T17:25:04;11.60;99.90
23069;DHT22;11702;50.856;4.348;2023-04-06T17:27:31;11.60;99.90
23069;DHT22;11702;50.856;4.348;2023-04-06T17:29:58;11.70;99.90
23069;DHT22;11702;50.856;4.348;2023-04-06T17:32:29;11.70;99.90
23069;DHT22;11702;50.856;4.348;2023-04-06T17:34:54;11.70;99.90
23069;DHT22;11702;50.856;4.348;2023-04-06T17:37:23;11.70;99.90
23069;DHT22;11702;50.856;4.348;2023-04-06T17:39:50;11.70;99.90
23069;DHT22;11702;50.856;4.348;2023-04-06T17:42:16;11.60;99.90
23069;DHT22;11702;50.856;4.348;2023-04-06T17:44:43;11.70;99.90
23069;DHT22;11702;50.856;4.348;2023-04-06T17:47:09;11.70;99.90
23069;DHT22;11702;50.856;4.348;2023-04-06T17:49:34;11.70;99.90
23069;DHT22;11702;50.856;4.348;2023-04-06T17:52:00;11.80;99.90
23069;DHT22;11702;50.856;4.348;2023-04-06T17:54:26;11.80;99.90
23069;DHT22;11702;50.856;4.348;2023-04-06T17:56:52;11.70;99.90
23069;DHT22;11702;50.856;4.348;2023-04-06T17:59:18;11.60;99.90
23069;DHT22;11702;50.856;4.348;2023-04-06T18:01:46;11.60;99.90
23069;DHT22;11702;50.856;4.348;2023-04-06T18:04:12;11.60;99.90
23069;DHT22;11702;50.856;4.348;2023-04-06T18:06:38;11.60;99.90
23069;DHT22;11702;50.856;4.348;2023-04-06T18:09:04;11.60;99.90
23069;DHT22;11702;50.856;4.348;2023-04-06T18:11:29;11.50;99.90
23069;DHT22;11702;50.856;4.348;2023-04-06T18:13:57;11.40;99.90
23069;DHT22;11702;50.856;4.348;2023-04-06T18:16:22;11.30;99.90
23069;DHT22;11702;50.856;4.348;2023-04-06T18:18:51;11.30;99.90
23069;DHT22;11702;50.856;4.348;2023-04-06T18:21:17;11.20;99.90
23069;DHT22;11702;50.856;4.348;2023-04-06T18:23:43;11.20;99.90
23069;DHT22;11702;50.856;4.348;2023-04-06T18:26:24;11.30;99.90
23069;DHT22;11702;50.856;4.348;2023-04-06T18:28:50;11.20;99.90
23069;DHT22;11702;50.856;4.348;2023-04-06T18:31:16;11.20;99.90
23069;DHT22;11702;50.856;4.348;2023-04-06T18:33:43;11.10;99.90
23069;DHT22;11702;50.856;4.348;2023-04-06T18:36:09;11.20;99.90
23069;DHT22;11702;50.856;4.348;2023-04-06T18:38:37;11.10;99.90
23069;DHT22;11702;50.856;4.348;2023-04-06T18:41:03;10.90;99.90
23069;DHT22;11702;50.856;4.348;2023-04-06T18:43:29;10.80;99.90
23069;DHT22;11702;50.856;4.348;2023-04-06T18:45:56;10.70;99.90
23069;DHT22;11702;50.856;4.348;2023-04-06T18:48:21;10.50;99.90
23069;DHT22;11702;50.856;4.348;2023-04-06T18:50:55;10.40;99.90
23069;DHT22;11702;50.856;4.348;2023-04-06T18:53:24;10.30;99.90
23069;DHT22;11702;50.856;4.348;2023-04-06T18:55:50;10.20;99.90
23069;DHT22;11702;50.856;4.348;2023-04-06T18:58:16;10.10;99.90
23069;DHT22;11702;50.856;4.348;2023-04-06T19:00:41;10.20;99.90
23069;DHT22;11702;50.856;4.348;2023-04-06T19:03:07;10.10;99.90
23069;DHT22;11702;50.856;4.348;2023-04-06T19:05:33;10.20;99.90
23069;DHT22;11702;50.856;4.348;2023-04-06T19:07:58;10.10;99.90
23069;DHT22;11702;50.856;4.348;2023-04-06T19:10:24;10.20;99.90
23069;DHT22;11702;50.856;4.348;2023-04-06T19:12:50;10.20;99.90
23069;DHT22;11702;50.856;4.348;2023-04-06T19:15:15;10.20;99.90
23069;DHT22;11702;50.856;4.348;2023-04-06T19:17:41;10.20;99.90
23069;DHT22;11702;50.856;4.348;2023-04-06T19:20:07;10.20;99.90
23069;DHT22;11702;50.856;4.348;2023-04-06T19:22:35;10.30;99.90
23069;DHT22;11702;50.856;4.348;2023-04-06T19:25:01;10.30;99.90
23069;DHT22;11702;50.856;4.348;2023-04-06T19:27:30;10.40;99.90
23069;DHT22;11702;50.856;4.348;2023-04-06T19:29:56;10.30;99.90
23069;DHT22;11702;50.856;4.348;2023-04-06T19:32:22;10.30;99.90
23069;DHT22;11702;50.856;4.348;2023-04-06T19:34:48;10.30;99.90
23069;DHT22;11702;50.856;4.348;2023-04-06T19:37:14;10.30;99.90
23069;DHT22;11702;50.856;4.348;2023-04-06T19:39:39;10.40;99.90
23069;DHT22;11702;50.856;4.348;2023-04-06T19:42:09;10.30;99.90
23069;DHT22;11702;50.856;4.348;2023-04-06T19:44:35;10.30;99.90
23069;DHT22;11702;50.856;4.348;2023-04-06T19:47:01;10.30;99.90
23069;DHT22;11702;50.856;4.348;2023-04-06T19:49:27;10.30;99.90
23069;DHT22;11702;50.856;4.348;2023-04-06T19:51:54;10.30;99.90
23069;DHT22;11702;50.856;4.348;2023-04-06T19:54:20;10.30;99.90
23069;DHT22;11702;50.856;4.348;2023-04-06T19:56:49;10.30;99.90
23069;DHT22;11702;50.856;4.348;2023-04-06T19:59:15;10.30;99.90
23069;DHT22;11702;50.856;4.348;2023-04-06T20:01:42;10.30;99.90
23069;DHT22;11702;50.856;4.348;2023-04-06T20:04:08;10.30;99.90
23069;DHT22;11702;50.856;4.348;2023-04-06T20:06:34;10.20;99.90
23069;DHT22;11702;50.856;4.348;2023-04-06T20:09:00;10.10;99.90
23069;DHT22;11702;50.856;4.348;2023-04-06T20:11:25;10.20;99.90
23069;DHT22;11702;50.856;4.348;2023-04-06T20:13:52;10.00;99.90
23069;DHT22;11702;50.856;4.348;2023-04-06T20:16:17;9.90;99.90
23069;DHT22;11702;50.856;4.348;2023-04-06T20:18:43;9.80;99.90
23069;DHT22;11702;50.856;4.348;2023-04-06T20:21:09;9.80;99.90
23069;DHT22;11702;50.856;4.348;2023-04-06T20:23:34;9.70;99.90
23069;DHT22;11702;50.856;4.348;2023-04-06T20:26:02;9.60;99.90
23069;DHT22;11702;50.856;4.348;2023-04-06T20:28:27;9.60;99.90
23069;DHT22;11702;50.856;4.348;2023-04-06T20:30:53;9.60;99.90
23069;DHT22;11702;50.856;4.348;2023-04-06T20:33:19;9.60;99.90
23069;DHT22;11702;50.856;4.348;2023-04-06T20:35:44;9.50;99.90
23069;DHT22;11702;50.856;4.348;2023-04-06T20:38:10;9.40;99.90
23069;DHT22;11702;50.856;4.348;2023-04-06T20:40:36;9.30;99.90
23069;DHT22;11702;50.856;4.348;2023-04-06T20:43:02;9.40;99.90
23069;DHT22;11702;50.856;4.348;2023-04-06T20:45:28;9.30;99.90
23069;DHT22;11702;50.856;4.348;2023-04-06T20:47:54;9.30;99.90
23069;DHT22;11702;50.856;4.348;2023-04-06T20:50:20;9.30;99.90
23069;DHT22;11702;50.856;4.348;2023-04-06T20:52:47;9.30;99.90
23069;DHT22;11702;50.856;4.348;2023-04-06T20:55:13;9.20;99.90
23069;DHT22;11702;50.856;4.348;2023-04-06T20:57:39;9.20;99.90
23069;DHT22;11702;50.856;4.348;2023-04-06T21:00:06;9.20;99.90
23069;DHT22;11702;50.856;4.348;2023-04-06T21:02:36;9.20;99.90
23069;DHT22;11702;50.856;4.348;2023-04-06T21:05:02;9.20;99.90
23069;DHT22;11702;50.856;4.348;2023-04-06T21:07:31;9.10;99.90
23069;DHT22;11702;50.856;4.348;2023-04-06T21:10:08;9.00;99.90
23069;DHT22;11702;50.856;4.348;2023-04-06T21:12:48;9.00;99.90
23069;DHT22;11702;50.856;4.348;2023-04-06T21:15:16;9.10;99.90
23069;DHT22;11702;50.856;4.348;2023-04-06T21:17:46;9.10;99.90
23069;DHT22;11702;50.856;4.348;2023-04-06T21:20:12;9.10;99.90
23069;DHT22;11702;50.856;4.348;2023-04-06T21:22:39;9.10;99.90
23069;DHT22;11702;50.856;4.348;2023-04-06T21:25:05;9.20;99.90
23069;DHT22;11702;50.856;4.348;2023-04-06T21:27:35;9.30;99.90
23069;DHT22;11702;50.856;4.348;2023-04-06T21:30:05;9.40;99.90
23069;DHT22;11702;50.856;4.348;2023-04-06T21:32:31;9.40;99.90
23069;DHT22;11702;50.856;4.348;2023-04-06T21:34:57;9.50;99.90
23069;DHT22;11702;50.856;4.348;2023-04-06T21:37:26;9.50;99.90
23069;DHT22;11702;50.856;4.348;2023-04-06T21:39:53;9.60;99.90
23069;DHT22;11702;50.856;4.348;2023-04-06T21:42:22;9.60;99.90
23069;DHT22;11702;50.856;4.348;2023-04-06T21:44:49;9.70;99.90
23069;DHT22;11702;50.856;4.348;2023-04-06T21:47:21;9.70;99.90
23069;DHT22;11702;50.856;4.348;2023-04-06T21:49:46;9.70;99.90
23069;DHT22;11702;50.856;4.348;2023-04-06T21:52:18;9.70;99.90
23069;DHT22;11702;50.856;4.348;2023-04-06T21:55:01;9.70;99.90
23069;DHT22;11702;50.856;4.348;2023-04-06T21:57:27;9.70;99.90
23069;DHT22;11702;50.856;4.348;2023-04-06T21:59:53;9.80;99.90
23069;DHT22;11702;50.856;4.348;2023-04-06T22:02:20;9.80;99.90
